Time;durP1;ratioP1;P1;durP2;ratioP2;P2;SDS_P1;SDS_P2;PMS_P1;PMS_P2;Temp;Humidity;BMP_temperature;BMP_pressure;BME280_temperature;BME280_humidity;BME280_pressure;Samples;Min_cycle;Max_cycle;Signal;HPM_P1;HPM_P2
2022/09/09 00:03:10;;;;;;;13.65;9.90;;;;;;;17.77;86.12;100022.55;3551071;82;98850;-84
2022/09/09 00:08:21;;;;;;;15.78;10.00;;;;;;;17.82;85.65;100022.66;3558896;80;98813;-86
2022/09/09 00:13:46;;;;;;;16.52;10.58;;;;;;;17.85;85.45;100005.86;3551011;82;98980;-86
2022/09/09 00:19:18;;;;;;;16.30;11.00;;;;;;;17.89;84.72;100002.39;3550904;82;99057;-85
2022/09/09 00:24:53;;;;;;;15.25;9.15;;;;;;;17.91;84.72;99997.75;3541280;82;99096;-87
2022/09/09 00:29:59;;;;;;;11.20;8.43;;;;;;;17.93;84.14;100003.69;3502719;81;98926;-86
2022/09/09 00:35:06;;;;;;;13.70;9.63;;;;;;;17.93;83.65;100000.91;3553214;82;98813;-86
2022/09/09 00:40:41;;;;;;;12.93;9.30;;;;;;;17.92;83.66;99998.72;3552611;82;98962;-86
2022/09/09 00:46:15;;;;;;;18.33;14.13;;;;;;;17.91;83.46;100008.30;3545352;82;98712;-87
2022/09/09 00:51:24;;;;;;;19.50;13.22;;;;;;;17.91;84.91;100010.28;3548513;81;99033;-87
2022/09/09 00:56:34;;;;;;;14.73;10.55;;;;;;;17.84;85.46;100007.69;3541637;82;99238;-87
2022/09/09 01:01:35;;;;;;;20.02;14.40;;;;;;;17.81;85.48;100014.11;3542098;80;99260;-87
2022/09/09 01:06:38;;;;;;;20.23;14.63;;;;;;;17.81;87.04;100016.89;3557787;82;99042;-87
2022/09/09 01:12:03;;;;;;;13.85;10.10;;;;;;;17.75;88.25;100023.61;3532355;82;99240;-87
2022/09/09 01:17:18;;;;;;;13.45;8.80;;;;;;;17.70;88.39;100025.52;3545320;82;99155;-87
2022/09/09 01:22:25;;;;;;;11.88;8.30;;;;;;;17.73;87.46;100034.41;3540840;81;99023;-87
2022/09/09 01:27:26;;;;;;;12.73;8.35;;;;;;;17.77;86.78;100032.30;3528005;82;99108;-86
2022/09/09 01:32:46;;;;;;;16.67;11.33;;;;;;;17.70;86.55;100015.78;3566492;82;98682;-87
2022/09/09 01:37:47;;;;;;;12.37;9.28;;;;;;;17.80;87.49;100037.60;3538509;82;99285;-87
2022/09/09 01:42:48;;;;;;;12.95;8.60;;;;;;;17.76;87.16;100043.89;3541080;81;99036;-88
2022/09/09 01:47:52;;;;;;;13.43;9.13;;;;;;;17.78;86.51;100046.41;3532553;82;99183;-87
2022/09/09 01:52:57;;;;;;;13.13;8.90;;;;;;;17.78;86.92;100045.62;3555135;82;99043;-87
2022/09/09 01:58:23;;;;;;;13.32;8.28;;;;;;;17.74;86.20;100047.70;3540184;82;98936;-87
2022/09/09 02:03:31;;;;;;;11.30;7.30;;;;;;;17.73;85.85;100045.53;3543165;80;99004;-87
2022/09/09 02:08:44;;;;;;;11.25;7.03;;;;;;;17.73;85.41;100051.70;3554264;82;99173;-89
2022/09/09 02:13:48;;;;;;;10.43;7.03;;;;;;;17.71;85.48;100051.36;3547666;82;99051;-88
2022/09/09 02:19:04;;;;;;;10.45;6.55;;;;;;;17.66;85.15;100057.44;3556653;82;98962;-88
2022/09/09 02:24:10;;;;;;;9.60;5.93;;;;;;;17.63;85.12;100061.88;3543757;82;98925;-88
2022/09/09 02:29:28;;;;;;;10.72;6.03;;;;;;;17.61;85.01;100069.09;3538817;82;99278;-87
2022/09/09 02:34:34;;;;;;;10.58;6.92;;;;;;;17.59;84.93;100073.69;3552508;82;99072;-88
2022/09/09 02:39:35;;;;;;;12.58;9.35;;;;;;;17.52;85.26;100073.86;3546938;81;98970;-86
2022/09/09 02:44:37;;;;;;;13.03;9.20;;;;;;;17.46;86.85;100076.98;3550593;81;98964;-87
2022/09/09 02:49:59;;;;;;;12.18;9.20;;;;;;;17.30;88.19;100074.72;3535302;82;98993;-85
2022/09/09 02:55:22;;;;;;;15.80;11.48;;;;;;;17.25;88.92;100078.80;3559244;82;99059;-84
2022/09/09 03:00:27;;;;;;;17.02;12.95;;;;;;;17.17;90.25;100083.56;3560226;80;99206;-86
2022/09/09 03:05:28;;;;;;;17.75;11.63;;;;;;;17.09;91.66;100094.04;3547693;80;99147;-87
2022/09/09 03:10:29;;;;;;;19.92;13.22;;;;;;;16.91;92.46;100081.70;3536302;80;99633;-86
2022/09/09 03:15:31;;;;;;;17.57;13.03;;;;;;;16.95;93.45;100094.94;3548543;82;109761;-86
2022/09/09 03:20:32;;;;;;;15.70;10.07;;;;;;;16.95;92.51;100091.53;3562417;80;99497;-86
2022/09/09 03:25:33;;;;;;;20.80;14.75;;;;;;;16.98;92.06;100092.67;3551985;80;99147;-86
2022/09/09 03:30:34;;;;;;;18.02;12.90;;;;;;;16.98;93.88;100092.67;3561210;80;108451;-86
2022/09/09 03:35:35;;;;;;;19.83;14.53;;;;;;;16.93;93.69;100095.36;3540426;81;99269;-85
2022/09/09 03:40:36;;;;;;;19.52;14.20;;;;;;;16.94;94.14;100100.33;3555494;80;99252;-86
2022/09/09 03:45:37;;;;;;;20.30;14.67;;;;;;;16.91;94.23;100108.11;3549765;81;98967;-86
2022/09/09 03:50:38;;;;;;;18.70;14.53;;;;;;;16.87;95.19;100104.61;3543524;81;99255;-84
2022/09/09 03:55:41;;;;;;;18.77;14.10;;;;;;;16.87;94.77;100112.95;3555221;81;99241;-85
2022/09/09 04:00:42;;;;;;;23.05;15.93;;;;;;;16.90;94.53;100119.83;3547003;81;99338;-86
2022/09/09 04:05:43;;;;;;;15.15;10.10;;;;;;;16.91;94.62;100124.20;3557544;81;99298;-87
2022/09/09 04:10:46;;;;;;;19.12;14.95;;;;;;;16.96;93.22;100127.08;3560574;81;99303;-87
2022/09/09 04:15:54;;;;;;;20.35;15.78;;;;;;;17.02;93.49;100130.93;3569040;81;99165;-86
2022/09/09 04:20:57;;;;;;;22.35;16.40;;;;;;;17.01;93.77;100128.74;3537657;81;99029;-85
2022/09/09 04:25:59;;;;;;;18.65;13.90;;;;;;;16.94;95.52;100138.62;3553675;81;99153;-86
2022/09/09 04:31:11;;;;;;;21.25;15.13;;;;;;;16.88;94.03;100137.55;3564703;81;98995;-86
2022/09/09 04:36:12;;;;;;;23.50;16.75;;;;;;;16.95;93.52;100133.86;3578022;81;99206;-86
2022/09/09 04:41:14;;;;;;;24.05;16.35;;;;;;;16.96;93.64;100136.81;3575752;81;99207;-86
2022/09/09 04:46:17;;;;;;;26.10;18.37;;;;;;;16.98;93.75;100141.33;3537976;81;99160;-86
2022/09/09 04:51:18;;;;;;;26.57;18.17;;;;;;;16.91;94.52;100149.81;3555345;81;99218;-85
2022/09/09 04:56:19;;;;;;;23.15;16.50;;;;;;;16.81;95.13;100150.79;3569129;82;99164;-85
2022/09/09 05:01:21;;;;;;;23.92;16.77;;;;;;;16.66;95.15;100154.44;3554024;80;99051;-86
2022/09/09 05:06:23;;;;;;;36.13;19.98;;;;;;;16.66;95.15;100154.44;3572908;80;99491;-86
2022/09/09 05:11:27;;;;;;;29.92;20.23;;;;;;;16.63;95.89;100157.28;3581798;80;99370;-85
2022/09/09 05:16:28;;;;;;;29.57;19.82;;;;;;;16.61;95.78;100161.07;3583712;80;99524;-85
2022/09/09 05:21:30;;;;;;;28.50;19.13;;;;;;;16.58;95.80;100159.16;3586096;80;99129;-85
2022/09/09 05:26:32;;;;;;;27.98;19.30;;;;;;;16.64;95.24;100166.59;3569305;80;98980;-89
2022/09/09 05:31:33;;;;;;;33.35;22.05;;;;;;;16.71;94.55;100167.84;3560966;82;99195;-88
2022/09/09 05:36:34;;;;;;;32.65;21.55;;;;;;;16.63;95.96;100168.40;3560635;80;99210;-89
2022/09/09 05:41:40;;;;;;;28.30;19.02;;;;;;;16.60;95.96;100171.42;3543585;82;99149;-88
2022/09/09 05:46:41;;;;;;;33.30;22.67;;;;;;;16.60;95.98;100175.59;3530763;81;99179;-90
2022/09/09 05:51:42;;;;;;;28.53;20.60;;;;;;;16.68;95.73;100173.47;3558130;81;99101;-90
2022/09/09 05:56:44;;;;;;;26.63;19.03;;;;;;;16.70;95.45;100175.21;3547548;81;99225;-89
2022/09/09 06:01:45;;;;;;;38.10;25.15;;;;;;;16.81;94.83;100177.20;3559882;81;99139;-89
2022/09/09 06:06:46;;;;;;;29.97;21.70;;;;;;;16.85;95.25;100181.47;3563343;81;99032;-90
2022/09/09 06:11:46;;;;;;;36.35;24.12;;;;;;;16.88;95.44;100188.97;3564791;81;99096;-87
2022/09/09 06:16:47;;;;;;;30.02;20.88;;;;;;;16.84;95.84;100183.31;3554709;81;99301;-88
2022/09/09 06:21:50;;;;;;;28.42;19.60;;;;;;;16.92;94.49;100193.88;3583473;81;99507;-87
2022/09/09 06:26:50;;;;;;;36.53;19.45;;;;;;;16.99;94.74;100191.55;3566349;80;99249;-88
2022/09/09 06:31:51;;;;;;;25.88;16.65;;;;;;;17.04;95.00;100193.83;3570038;80;99285;-87
2022/09/09 06:36:52;;;;;;;23.30;15.13;;;;;;;17.16;94.62;100191.84;3565424;81;99279;-87
2022/09/09 06:41:53;;;;;;;24.18;17.32;;;;;;;17.25;94.68;100192.84;3526883;81;99218;-87
2022/09/09 06:46:54;;;;;;;20.37;14.28;;;;;;;17.36;94.86;100195.39;3519607;82;99153;-86
2022/09/09 06:51:55;;;;;;;18.92;12.65;;;;;;;17.45;93.74;100201.21;3530404;81;99313;-87
2022/09/09 06:56:56;;;;;;;26.30;18.32;;;;;;;17.65;92.53;100197.82;3522689;82;99203;-87
2022/09/09 07:01:57;;;;;;;27.05;17.73;;;;;;;17.81;93.22;100200.03;3506097;82;99270;-87
2022/09/09 07:06:58;;;;;;;27.85;21.05;;;;;;;17.90;92.43;100197.45;3516099;81;99310;-86
2022/09/09 07:12:00;;;;;;;24.92;18.62;;;;;;;18.10;92.60;100202.97;3504521;81;99365;-87
2022/09/09 07:17:02;;;;;;;21.05;14.90;;;;;;;18.20;92.54;100208.91;3518434;81;99173;-88
2022/09/09 07:22:04;;;;;;;27.75;20.52;;;;;;;18.29;91.02;100199.32;3534224;81;99211;-88
2022/09/09 07:27:05;;;;;;;31.75;22.02;;;;;;;18.43;91.28;100205.36;3527712;81;99307;-86
2022/09/09 07:32:07;;;;;;;26.57;17.35;;;;;;;18.51;92.04;100205.98;3519307;82;99279;-88
2022/09/09 07:37:11;;;;;;;24.02;17.57;;;;;;;18.54;91.14;100203.73;3521556;82;99185;-88
2022/09/09 07:42:11;;;;;;;24.82;16.93;;;;;;;18.73;90.65;100207.02;3537946;80;99342;-88
2022/09/09 07:47:12;;;;;;;21.73;14.68;;;;;;;18.92;90.56;100201.95;3536289;80;99103;-89
2022/09/09 07:52:14;;;;;;;24.52;17.10;;;;;;;18.95;89.28;100192.09;3555076;80;99330;-89
2022/09/09 07:57:16;;;;;;;19.62;14.38;;;;;;;19.11;88.84;100208.79;3567066;80;98965;-89
2022/09/09 08:02:17;;;;;;;27.15;15.95;;;;;;;19.21;88.36;100211.11;3535701;80;99281;-89
2022/09/09 08:07:18;;;;;;;20.35;14.78;;;;;;;19.26;88.88;100216.98;3511407;80;99362;-91
2022/09/09 08:12:20;;;;;;;20.23;14.50;;;;;;;19.31;88.01;100215.66;3542988;79;99323;-92
2022/09/09 08:17:21;;;;;;;20.17;13.50;;;;;;;19.40;89.03;100217.20;3565134;80;99169;-94
2022/09/09 08:22:22;;;;;;;19.60;13.88;;;;;;;19.52;89.15;100223.44;3563313;80;99432;-93
2022/09/09 08:27:23;;;;;;;11.65;7.92;;;;;;;19.60;89.03;100225.58;3560461;80;99251;-94
2022/09/09 08:32:24;;;;;;;20.27;12.93;;;;;;;19.72;88.34;100233.83;3558661;80;98970;-96
2022/09/09 08:37:25;;;;;;;15.25;11.65;;;;;;;19.85;88.48;100229.04;3565676;80;99377;-89
2022/09/09 08:42:41;;;;;;;14.53;8.80;;;;;;;20.03;89.22;100230.67;3553379;80;99103;-92
2022/09/09 08:48:12;;;;;;;12.58;8.15;;;;;;;20.34;89.40;100237.33;3580224;80;99375;-92
2022/09/09 08:53:21;;;;;;;13.85;8.68;;;;;;;20.76;89.48;100228.33;3581600;80;99049;-92
2022/09/09 08:58:29;;;;;;;11.20;7.50;;;;;;;21.43;88.22;100236.61;3591843;80;99074;-93
2022/09/09 09:04:02;;;;;;;13.43;9.40;;;;;;;22.10;87.12;100241.90;3563301;80;99084;-93
2022/09/09 09:09:20;;;;;;;11.45;7.00;;;;;;;22.82;86.41;100239.38;3552878;80;99049;-91
2022/09/09 09:14:24;;;;;;;12.68;6.97;;;;;;;23.36;83.23;100245.70;3574206;80;98959;-91
2022/09/09 09:19:28;;;;;;;13.72;8.23;;;;;;;23.84;81.33;100239.11;3586311;80;99156;-89
2022/09/09 09:24:55;;;;;;;12.20;7.50;;;;;;;24.37;80.92;100236.81;3571686;80;103005;-89
2022/09/09 09:29:58;;;;;;;10.70;6.50;;;;;;;24.94;79.27;100241.83;3568587;80;99278;-90
2022/09/09 09:35:00;;;;;;;12.58;6.83;;;;;;;25.44;77.16;100236.00;3576377;80;99222;-90
2022/09/09 09:40:12;;;;;;;9.03;5.70;;;;;;;25.65;73.17;100238.31;3554712;80;98949;-87
2022/09/09 09:45:33;;;;;;;10.00;5.28;;;;;;;26.02;72.75;100242.36;3534011;81;98989;-88
2022/09/09 09:50:35;;;;;;;9.58;4.22;;;;;;;26.39;70.77;100240.05;3524758;81;99091;-88
2022/09/09 09:55:40;;;;;;;8.47;4.30;;;;;;;26.95;69.36;100241.66;3528570;82;98893;-87
2022/09/09 10:00:53;;;;;;;8.05;3.50;;;;;;;27.65;68.23;100246.67;3522674;82;98861;-86
2022/09/09 10:05:56;;;;;;;5.25;2.90;;;;;;;28.10;66.52;100244.44;3528220;81;98973;-87
2022/09/09 10:11:16;;;;;;;6.60;2.65;;;;;;;28.73;63.36;100229.00;3523687;82;99033;-85
2022/09/09 10:16:50;;;;;;;4.50;2.45;;;;;;;28.50;60.24;100237.19;3525573;83;98847;-87
2022/09/09 10:22:19;;;;;;;5.70;1.83;;;;;;;28.54;58.34;100232.70;3533253;81;98954;-86
2022/09/09 10:27:25;;;;;;;5.62;2.30;;;;;;;28.11;57.64;100240.98;3519431;82;98976;-86
2022/09/09 10:32:51;;;;;;;5.90;1.70;;;;;;;27.89;57.18;100249.27;3525783;81;103867;-85
2022/09/09 10:38:18;;;;;;;7.15;2.80;;;;;;;27.79;55.90;100250.05;3517614;81;99008;-87
2022/09/09 10:43:58;;;;;;;5.33;2.10;;;;;;;27.33;55.69;100257.73;3530821;81;99287;-88
2022/09/09 10:49:30;;;;;;;3.67;1.75;;;;;;;27.15;57.18;100258.00;3529621;81;98956;-87
2022/09/09 10:55:04;;;;;;;6.42;2.80;;;;;;;26.61;56.25;100262.22;3507934;81;99048;-85
2022/09/09 11:00:19;;;;;;;5.80;2.92;;;;;;;26.54;57.33;100258.36;3523333;81;98782;-87
2022/09/09 11:05:24;;;;;;;;;;;;;;;26.41;57.76;100258.67;3521021;81;98865;-87
2022/09/09 11:10:36;;;;;;;7.62;3.50;;;;;;;26.35;57.07;100252.16;3524257;81;85469;-83
2022/09/09 11:15:46;;;;;;;9.43;3.67;;;;;;;26.42;58.41;100255.98;3521993;81;99073;-89
2022/09/09 11:20:51;;;;;;;6.92;3.15;;;;;;;26.23;57.65;100256.08;3544076;81;98851;-88
2022/09/09 11:26:03;;;;;;;19.80;2.50;;;;;;;26.52;57.86;100247.55;3544714;81;98899;-86
2022/09/09 11:31:26;;;;;;;6.72;2.17;;;;;;;26.61;55.34;100255.16;3539370;81;99027;-85
2022/09/09 11:36:53;;;;;;;12.00;2.57;;;;;;;26.44;54.13;100256.30;3540449;81;98942;-84
2022/09/09 11:42:07;;;;;;;4.85;2.40;;;;;;;26.54;54.61;100258.36;3538979;80;99112;-87
2022/09/09 11:47:29;;;;;;;4.30;2.10;;;;;;;26.50;54.21;100258.57;3582449;80;99119;-85
2022/09/09 11:52:45;;;;;;;6.80;2.42;;;;;;;26.97;54.41;100255.42;3571543;80;99178;-87
2022/09/09 11:57:47;;;;;;;5.92;2.12;;;;;;;26.90;52.39;100254.44;3542006;80;98834;-86
2022/09/09 12:02:51;;;;;;;4.28;1.60;;;;;;;26.85;53.53;100248.08;3560565;80;98815;-85
2022/09/09 12:07:58;;;;;;;4.33;1.77;;;;;;;27.25;52.02;100247.36;3559337;81;98920;-85
2022/09/09 12:13:22;;;;;;;5.03;1.55;;;;;;;27.09;51.94;100240.83;3552670;81;98843;-85
2022/09/09 12:18:36;;;;;;;5.50;1.75;;;;;;;27.01;50.57;100251.77;3543171;80;121661;-83
2022/09/09 12:23:50;;;;;;;3.70;1.27;;;;;;;26.76;51.13;100242.55;3550476;81;99258;-85
2022/09/09 12:29:12;;;;;;;3.37;1.40;;;;;;;26.52;50.44;100234.06;3560875;81;98764;-81
2022/09/09 12:34:24;;;;;;;4.53;1.30;;;;;;;26.42;51.40;100228.42;3545854;81;99042;-82
2022/09/09 12:39:41;;;;;;;4.37;1.65;;;;;;;26.62;51.27;100230.67;3557183;81;98954;-80
2022/09/09 12:44:55;;;;;;;5.78;1.55;;;;;;;26.58;50.18;100223.66;3535326;80;98903;-83
2022/09/09 12:49:56;;;;;;;3.30;1.30;;;;;;;26.35;49.41;100220.34;3541006;81;98985;-83
2022/09/09 12:55:01;;;;;;;4.15;1.25;;;;;;;26.06;49.30;100218.97;3525906;81;98886;-84
2022/09/09 13:00:24;;;;;;;4.67;1.87;;;;;;;26.14;51.28;100221.53;3526511;82;98931;-83
2022/09/09 13:05:29;;;;;;;4.03;1.30;;;;;;;26.26;50.47;100221.23;3531207;81;99030;-79
2022/09/09 13:10:33;;;;;;;;;;;;;;;26.15;50.06;100220.29;3547480;80;99079;-82
2022/09/09 13:15:35;;;;;;;5.13;1.43;;;;;;;26.29;51.56;100216.66;3532017;81;86916;-83
2022/09/09 13:20:37;;;;;;;5.50;1.30;;;;;;;26.34;50.27;100213.14;3519854;81;104350;-83
2022/09/09 13:25:38;;;;;;;3.90;1.32;;;;;;;26.28;49.92;100223.56;3539361;81;99211;-82
2022/09/09 13:30:43;;;;;;;3.47;1.07;;;;;;;26.39;51.67;100218.89;3533726;81;103017;-83
2022/09/09 13:35:57;;;;;;;3.37;1.20;;;;;;;26.32;49.56;100222.09;3522157;82;123500;-81
2022/09/09 13:41:08;;;;;;;3.20;1.20;;;;;;;25.94;49.43;100217.99;3512627;82;99447;-82
2022/09/09 13:46:40;;;;;;;2.47;1.15;;;;;;;25.79;50.37;100205.14;3554864;80;98756;-83
2022/09/09 13:51:46;;;;;;;3.12;1.05;;;;;;;25.78;49.75;100213.45;3540703;81;99140;-83
2022/09/09 13:56:49;;;;;;;7.05;1.57;;;;;;;25.51;49.63;100205.27;3533085;81;99043;-82
2022/09/09 14:01:52;;;;;;;2.95;1.72;;;;;;;25.45;50.22;100215.02;3534420;82;98830;-83
2022/09/09 14:06:55;;;;;;;4.80;1.10;;;;;;;25.44;50.82;100207.06;3541867;81;98983;-83
2022/09/09 14:11:56;;;;;;;4.35;1.20;;;;;;;25.30;49.88;100204.98;3539974;82;99222;-84
2022/09/09 14:16:57;;;;;;;2.35;1.10;;;;;;;25.06;50.16;100196.53;3557215;81;98842;-83
2022/09/09 14:21:59;;;;;;;3.00;1.62;;;;;;;24.86;50.59;100197.80;3545877;82;98937;-82
2022/09/09 14:27:00;;;;;;;3.37;1.32;;;;;;;24.68;51.14;100197.13;3566480;80;98791;-80
2022/09/09 14:32:01;;;;;;;6.97;1.60;;;;;;;24.50;51.69;100200.78;3557310;80;98842;-82
2022/09/09 14:37:03;;;;;;;5.87;1.30;;;;;;;24.33;52.30;100196.81;3548111;81;99023;-82
2022/09/09 14:42:05;;;;;;;4.15;1.30;;;;;;;24.31;52.98;100195.08;3561503;80;98933;-83
2022/09/09 14:47:07;;;;;;;3.58;1.40;;;;;;;24.29;52.63;100200.42;3555839;80;98991;-82
2022/09/09 14:52:09;;;;;;;5.95;1.60;;;;;;;24.24;52.89;100202.47;3556727;80;98994;-82
2022/09/09 14:57:10;;;;;;;5.50;1.70;;;;;;;24.28;53.23;100209.32;3562248;80;98924;-81
2022/09/09 15:02:13;;;;;;;5.03;1.27;;;;;;;24.23;53.22;100209.35;3550706;80;98945;-82
2022/09/09 15:07:13;;;;;;;2.98;1.40;;;;;;;24.22;53.44;100192.95;3543517;81;98938;-82
2022/09/09 15:12:15;;;;;;;13.20;6.03;;;;;;;24.10;53.24;100190.52;3559855;81;99184;-83
2022/09/09 15:17:16;;;;;;;4.90;1.77;;;;;;;23.92;53.14;100192.60;3547377;81;99096;-82
2022/09/09 15:22:17;;;;;;;5.35;1.75;;;;;;;23.77;53.53;100191.67;3544169;81;98838;-83
2022/09/09 15:27:18;;;;;;;6.00;2.37;;;;;;;23.59;53.85;100196.69;3540047;81;99024;-83
2022/09/09 15:32:19;;;;;;;4.20;1.60;;;;;;;23.43;54.43;100185.78;3541201;82;99118;-83
2022/09/09 15:37:20;;;;;;;5.53;2.35;;;;;;;23.34;54.75;100184.41;3557169;81;98638;-82
2022/09/09 15:42:21;;;;;;;2.47;1.15;;;;;;;23.25;55.17;100185.81;3536932;81;98946;-83
2022/09/09 15:47:21;;;;;;;6.53;1.75;;;;;;;23.15;55.78;100183.45;3541725;81;98903;-83
2022/09/09 15:52:23;;;;;;;4.00;1.50;;;;;;;23.10;55.92;100181.27;3558020;80;98861;-83
2022/09/09 15:57:24;;;;;;;3.57;1.83;;;;;;;23.02;56.30;100185.62;3551537;81;98881;-83
2022/09/09 16:02:25;;;;;;;4.40;1.60;;;;;;;22.93;56.57;100189.81;3550451;82;99166;-79
2022/09/09 16:07:26;;;;;;;5.10;1.30;;;;;;;22.87;57.45;100189.66;3556361;80;99126;-82
2022/09/09 16:12:26;;;;;;;3.72;1.37;;;;;;;22.84;57.72;100184.20;3551821;81;99001;-82
2022/09/09 16:17:27;;;;;;;5.23;1.70;;;;;;;22.80;57.75;100181.56;3554107;81;98918;-83
2022/09/09 16:22:28;;;;;;;3.37;1.47;;;;;;;22.75;57.71;100189.80;3551118;81;98848;-83
2022/09/09 16:27:29;;;;;;;6.22;1.67;;;;;;;22.75;57.71;100189.80;3547146;81;98884;-83
2022/09/09 16:32:30;;;;;;;6.07;1.70;;;;;;;22.75;58.51;100182.78;3553415;81;98904;-83
2022/09/09 16:37:33;;;;;;;6.72;2.00;;;;;;;22.72;58.38;100176.71;3556239;81;98999;-83
2022/09/09 16:42:33;;;;;;;3.23;1.70;;;;;;;22.65;58.62;100177.78;3547951;80;106469;-83
2022/09/09 16:47:34;;;;;;;4.40;1.73;;;;;;;22.72;58.61;100194.31;3531781;81;100033;-83
2022/09/09 16:52:36;;;;;;;3.97;1.73;;;;;;;22.66;58.83;100195.41;3518407;82;99103;-83
2022/09/09 16:57:37;;;;;;;4.53;1.70;;;;;;;22.63;58.91;100193.52;3519851;82;98896;-83
2022/09/09 17:02:38;;;;;;;6.90;1.50;;;;;;;22.60;59.04;100193.03;3523286;82;98908;-83
2022/09/09 17:07:39;;;;;;;4.45;2.10;;;;;;;22.55;59.29;100187.42;3521731;81;98814;-83
2022/09/09 17:12:41;;;;;;;10.53;2.00;;;;;;;22.49;59.41;100195.50;3533416;82;99031;-83
2022/09/09 17:17:44;;;;;;;4.53;1.77;;;;;;;22.43;59.56;100195.30;3518196;82;99330;-83
2022/09/09 17:22:45;;;;;;;13.20;2.67;;;;;;;22.36;60.09;100188.59;3547336;81;98996;-84
2022/09/09 17:27:46;;;;;;;9.00;2.10;;;;;;;22.23;60.69;100201.16;3535041;81;99044;-84
2022/09/09 17:32:47;;;;;;;6.33;1.90;;;;;;;22.11;61.10;100200.62;3536197;81;98846;-84
2022/09/09 17:37:48;;;;;;;8.20;2.62;;;;;;;21.99;61.77;100217.70;3528324;82;99072;-84
2022/09/09 17:42:49;;;;;;;8.23;2.85;;;;;;;21.84;62.53;100219.48;3522434;81;99263;-82
2022/09/09 17:47:50;;;;;;;10.27;3.57;;;;;;;21.70;63.14;100213.00;3541209;81;98924;-83
2022/09/09 17:52:51;;;;;;;9.80;3.33;;;;;;;21.60;63.35;100230.98;3549804;81;99115;-86
2022/09/09 17:57:52;;;;;;;12.43;2.87;;;;;;;21.47;64.05;100233.69;3527353;81;99047;-86
2022/09/09 18:02:53;;;;;;;9.97;2.87;;;;;;;21.29;64.69;100234.31;3520366;81;99193;-85
2022/09/09 18:07:54;;;;;;;6.63;2.87;;;;;;;21.18;65.22;100238.10;3524351;81;98988;-86
2022/09/09 18:12:56;;;;;;;5.35;2.40;;;;;;;21.05;65.70;100237.98;3518430;81;99153;-85
2022/09/09 18:18:01;;;;;;;7.60;2.27;;;;;;;20.90;66.43;100228.50;3527794;81;99007;-85
2022/09/09 18:23:01;;;;;;;6.83;2.63;;;;;;;20.78;66.91;100227.28;3519616;81;98993;-85
2022/09/09 18:28:02;;;;;;;8.87;3.30;;;;;;;20.67;67.29;100237.25;3515679;81;99150;-84
2022/09/09 18:33:03;;;;;;;5.63;2.93;;;;;;;20.55;67.73;100236.02;3501361;83;98964;-84
2022/09/09 18:38:04;;;;;;;6.13;2.63;;;;;;;20.42;68.08;100221.88;3515654;81;98977;-84
2022/09/09 18:43:06;;;;;;;5.97;2.37;;;;;;;20.30;68.64;100224.08;3507854;81;99023;-85
2022/09/09 18:48:07;;;;;;;7.43;2.80;;;;;;;20.19;69.11;100224.42;3549526;81;98898;-84
2022/09/09 18:53:09;;;;;;;7.17;3.07;;;;;;;20.09;69.55;100227.52;3539579;81;98901;-85
2022/09/09 18:58:12;;;;;;;7.60;3.07;;;;;;;19.98;70.00;100225.64;3543483;82;98939;-85
2022/09/09 19:03:13;;;;;;;6.00;2.75;;;;;;;19.89;70.40;100224.14;3554960;81;98842;-84
2022/09/09 19:08:14;;;;;;;6.40;2.93;;;;;;;19.80;70.74;100233.17;3569265;81;99218;-85
2022/09/09 19:13:16;;;;;;;8.27;3.50;;;;;;;19.71;71.14;100237.82;3570628;80;99175;-85
2022/09/09 19:18:17;;;;;;;8.03;3.43;;;;;;;19.60;71.48;100239.54;3574244;80;98773;-85
2022/09/09 19:23:18;;;;;;;6.78;3.45;;;;;;;19.51;71.86;100241.41;3561543;81;98763;-85
2022/09/09 19:28:19;;;;;;;9.43;3.45;;;;;;;19.42;72.24;100244.84;3580341;80;98746;-84
2022/09/09 19:33:20;;;;;;;7.50;3.57;;;;;;;19.34;72.61;100243.45;3579907;80;98702;-85
2022/09/09 19:38:21;;;;;;;12.17;3.57;;;;;;;19.25;72.63;100247.52;3566942;80;99083;-84
2022/09/09 19:43:24;;;;;;;10.85;3.80;;;;;;;19.16;73.17;100253.50;3576650;81;99099;-85
2022/09/09 19:48:30;;;;;;;7.70;3.73;;;;;;;19.09;73.51;100259.27;3548161;81;99200;-81
2022/09/09 19:53:32;;;;;;;;;;;;;;;18.99;73.73;100258.93;3554603;81;98852;-85
2022/09/09 19:58:33;;;;;;;8.33;3.80;;;;;;;18.91;75.15;100268.09;3564819;81;85206;-84
2022/09/09 20:03:35;;;;;;;10.20;3.93;;;;;;;18.80;73.91;100272.38;3563561;80;105436;-84
2022/09/09 20:08:38;;;;;;;8.10;4.00;;;;;;;18.73;74.15;100266.95;3544433;81;99233;-84
2022/09/09 20:13:40;;;;;;;6.93;3.63;;;;;;;18.67;74.59;100271.48;3560277;81;99231;-85
2022/09/09 20:18:45;;;;;;;6.57;3.60;;;;;;;18.63;74.98;100269.41;3562876;80;99173;-85
2022/09/09 20:23:47;;;;;;;12.50;4.62;;;;;;;18.60;75.06;100270.27;3546407;80;99149;-85
2022/09/09 20:28:51;;;;;;;10.98;4.58;;;;;;;18.56;75.41;100266.77;3563144;80;99077;-84
2022/09/09 20:33:54;;;;;;;9.48;5.08;;;;;;;18.53;75.49;100265.64;3546253;81;99113;-85
2022/09/09 20:38:59;;;;;;;10.25;5.15;;;;;;;18.53;75.61;100266.27;3559495;82;98860;-84
2022/09/09 20:44:05;;;;;;;10.72;4.40;;;;;;;18.49;75.88;100265.56;3560323;81;99071;-84
2022/09/09 20:49:09;;;;;;;12.27;5.37;;;;;;;18.50;76.42;100265.73;3541117;81;99144;-85
2022/09/09 20:54:22;;;;;;;10.93;5.15;;;;;;;18.48;76.73;100255.64;3521521;82;99263;-85
2022/09/09 20:59:26;;;;;;;9.17;4.83;;;;;;;18.46;76.62;100256.06;3519482;82;99046;-85
2022/09/09 21:04:28;;;;;;;8.55;5.03;;;;;;;18.46;77.00;100248.30;3530918;81;99015;-85
2022/09/09 21:09:29;;;;;;;8.73;4.58;;;;;;;18.45;77.22;100243.35;3533197;82;99061;-85
2022/09/09 21:14:31;;;;;;;8.80;5.22;;;;;;;18.45;77.20;100254.50;3526692;82;98816;-85
2022/09/09 21:19:32;;;;;;;8.95;5.08;;;;;;;18.44;77.44;100253.53;3529620;81;99017;-85
2022/09/09 21:24:33;;;;;;;11.17;5.07;;;;;;;18.42;77.51;100251.17;3524763;82;98826;-87
2022/09/09 21:29:34;;;;;;;10.28;5.53;;;;;;;18.41;77.65;100253.00;3531716;81;99166;-87
2022/09/09 21:34:35;;;;;;;9.23;4.80;;;;;;;18.43;77.94;100247.16;3532209;82;99136;-87
2022/09/09 21:39:36;;;;;;;12.27;6.80;;;;;;;18.42;77.80;100242.81;3517713;83;98900;-87
2022/09/09 21:44:37;;;;;;;12.63;6.67;;;;;;;18.39;78.14;100230.36;3517531;82;99186;-87
2022/09/09 21:49:38;;;;;;;10.57;6.37;;;;;;;18.38;78.13;100238.55;3562385;81;99145;-86
2022/09/09 21:54:43;;;;;;;11.20;7.50;;;;;;;18.39;78.36;100246.48;3552230;81;99642;-86
2022/09/09 21:59:42;;;;;;;14.53;7.10;;;;;;;18.38;78.52;100240.74;3560496;81;99195;-85
2022/09/09 22:04:42;;;;;;;13.15;7.30;;;;;;;18.36;78.54;100236.19;3541961;81;99213;-86
2022/09/09 22:09:43;;;;;;;10.20;6.17;;;;;;;18.35;78.77;100233.83;3559517;81;99497;-87
2022/09/09 22:14:44;;;;;;;13.20;7.10;;;;;;;18.33;78.88;100239.06;3573283;80;99267;-87
2022/09/09 22:19:46;;;;;;;12.87;8.07;;;;;;;18.32;79.03;100231.30;3568924;81;99011;-87
2022/09/09 22:24:47;;;;;;;15.27;7.63;;;;;;;18.31;78.95;100242.88;3550142;81;99246;-87
2022/09/09 22:29:48;;;;;;;14.97;7.83;;;;;;;18.29;79.04;100242.50;3563265;81;99060;-86
2022/09/09 22:34:50;;;;;;;11.68;7.60;;;;;;;18.27;78.99;100246.34;3570442;81;99238;-87
2022/09/09 22:39:50;;;;;;;13.20;8.40;;;;;;;18.22;78.99;100239.30;3562765;81;99170;-87
2022/09/09 22:44:51;;;;;;;13.20;7.10;;;;;;;18.17;79.25;100246.77;3560226;81;99082;-88
2022/09/09 22:49:52;;;;;;;13.80;9.03;;;;;;;18.12;79.20;100276.53;3560130;81;99115;-86
2022/09/09 22:54:53;;;;;;;12.37;7.03;;;;;;;17.93;81.50;100266.81;3534762;81;99622;-87
2022/09/09 22:59:54;;;;;;;11.45;7.10;;;;;;;17.84;81.49;100271.56;3545928;81;99176;-87
2022/09/09 23:04:58;;;;;;;14.90;8.43;;;;;;;17.85;81.69;100258.41;3564745;81;99099;-87
2022/09/09 23:09:58;;;;;;;12.35;8.13;;;;;;;17.87;81.56;100256.77;3570024;80;99360;-87
2022/09/09 23:14:59;;;;;;;13.78;7.30;;;;;;;17.89;81.55;100251.58;3548488;81;99163;-85
2022/09/09 23:20:02;;;;;;;14.50;9.37;;;;;;;17.95;81.51;100253.23;3553045;81;99002;-85
2022/09/09 23:25:04;;;;;;;14.07;8.10;;;;;;;17.97;81.29;100251.58;3546643;81;98961;-85
2022/09/09 23:30:07;;;;;;;12.85;8.10;;;;;;;17.96;81.37;100239.48;3544489;80;98999;-87